sensor_id;sensor_type;location;lat;lon;timestamp;P1;durP1;ratioP1;P2;durP2;ratioP2
3004;SDS011;1512;51.486;6.610;2023-02-11T00:00:43;21.27;;;14.70;;
3004;SDS011;1512;51.486;6.610;2023-02-11T00:04:51;21.73;;;14.00;;
3004;SDS011;1512;51.486;6.610;2023-02-11T00:09:00;22.13;;;14.57;;
3004;SDS011;1512;51.486;6.610;2023-02-11T00:13:09;27.93;;;14.20;;
3004;SDS011;1512;51.486;6.610;2023-02-11T00:17:18;21.63;;;13.30;;
3004;SDS011;1512;51.486;6.610;2023-02-11T00:21:27;23.67;;;15.10;;
3004;SDS011;1512;51.486;6.610;2023-02-11T00:25:43;21.37;;;14.13;;
3004;SDS011;1512;51.486;6.610;2023-02-11T00:29:50;21.97;;;13.20;;
3004;SDS011;1512;51.486;6.610;2023-02-11T00:33:59;27.83;;;15.20;;
3004;SDS011;1512;51.486;6.610;2023-02-11T00:38:08;26.37;;;13.77;;
3004;SDS011;1512;51.486;6.610;2023-02-11T00:42:16;34.13;;;15.97;;
3004;SDS011;1512;51.486;6.610;2023-02-11T00:46:25;22.67;;;14.10;;
3004;SDS011;1512;51.486;6.610;2023-02-11T00:50:34;20.47;;;13.17;;
3004;SDS011;1512;51.486;6.610;2023-02-11T00:54:42;32.97;;;14.70;;
3004;SDS011;1512;51.486;6.610;2023-02-11T00:58:51;26.43;;;14.17;;
3004;SDS011;1512;51.486;6.610;2023-02-11T01:02:59;26.03;;;13.50;;
3004;SDS011;1512;51.486;6.610;2023-02-11T01:07:08;20.37;;;13.00;;
3004;SDS011;1512;51.486;6.610;2023-02-11T01:11:18;28.00;;;12.50;;
3004;SDS011;1512;51.486;6.610;2023-02-11T01:15:27;21.70;;;13.30;;
3004;SDS011;1512;51.486;6.610;2023-02-11T01:19:36;21.93;;;13.93;;
3004;SDS011;1512;51.486;6.610;2023-02-11T01:23:45;19.60;;;12.30;;
3004;SDS011;1512;51.486;6.610;2023-02-11T01:27:54;20.17;;;11.97;;
3004;SDS011;1512;51.486;6.610;2023-02-11T01:32:02;21.30;;;13.53;;
3004;SDS011;1512;51.486;6.610;2023-02-11T01:36:11;22.23;;;12.03;;
3004;SDS011;1512;51.486;6.610;2023-02-11T01:40:20;20.07;;;11.70;;
3004;SDS011;1512;51.486;6.610;2023-02-11T01:44:33;17.43;;;12.10;;
3004;SDS011;1512;51.486;6.610;2023-02-11T01:48:43;25.80;;;11.87;;
3004;SDS011;1512;51.486;6.610;2023-02-11T01:52:57;18.50;;;12.27;;
3004;SDS011;1512;51.486;6.610;2023-02-11T01:57:07;22.80;;;11.37;;
3004;SDS011;1512;51.486;6.610;2023-02-11T02:01:28;14.17;;;10.57;;
3004;SDS011;1512;51.486;6.610;2023-02-11T02:05:44;18.60;;;11.13;;
3004;SDS011;1512;51.486;6.610;2023-02-11T02:10:05;15.67;;;11.77;;
3004;SDS011;1512;51.486;6.610;2023-02-11T02:14:18;16.40;;;10.13;;
3004;SDS011;1512;51.486;6.610;2023-02-11T02:41:29;21.93;;;10.03;;
3004;SDS011;1512;51.486;6.610;2023-02-11T02:45:40;13.23;;;8.60;;
3004;SDS011;1512;51.486;6.610;2023-02-11T02:49:48;15.17;;;10.20;;
3004;SDS011;1512;51.486;6.610;2023-02-11T03:03:01;11.80;;;8.40;;
3004;SDS011;1512;51.486;6.610;2023-02-11T03:11:38;21.73;;;8.63;;
3004;SDS011;1512;51.486;6.610;2023-02-11T03:15:48;17.27;;;9.37;;
3004;SDS011;1512;51.486;6.610;2023-02-11T03:19:59;13.93;;;9.37;;
3004;SDS011;1512;51.486;6.610;2023-02-11T03:24:15;16.57;;;9.50;;
3004;SDS011;1512;51.486;6.610;2023-02-11T03:28:28;15.83;;;9.17;;
3004;SDS011;1512;51.486;6.610;2023-02-11T03:32:49;13.40;;;8.23;;
3004;SDS011;1512;51.486;6.610;2023-02-11T03:37:04;15.30;;;8.50;;
3004;SDS011;1512;51.486;6.610;2023-02-11T03:41:20;20.80;;;9.53;;
3004;SDS011;1512;51.486;6.610;2023-02-11T03:45:30;14.70;;;9.13;;
3004;SDS011;1512;51.486;6.610;2023-02-11T03:49:39;14.57;;;8.57;;
3004;SDS011;1512;51.486;6.610;2023-02-11T03:53:51;16.70;;;10.63;;
3004;SDS011;1512;51.486;6.610;2023-02-11T03:58:03;11.70;;;7.63;;
3004;SDS011;1512;51.486;6.610;2023-02-11T04:02:12;15.87;;;9.57;;
3004;SDS011;1512;51.486;6.610;2023-02-11T04:06:20;12.93;;;7.97;;
3004;SDS011;1512;51.486;6.610;2023-02-11T04:10:29;12.03;;;8.20;;
3004;SDS011;1512;51.486;6.610;2023-02-11T04:14:38;13.27;;;8.83;;
3004;SDS011;1512;51.486;6.610;2023-02-11T04:18:46;10.60;;;6.87;;
3004;SDS011;1512;51.486;6.610;2023-02-11T04:22:55;13.87;;;7.57;;
3004;SDS011;1512;51.486;6.610;2023-02-11T04:27:03;19.17;;;9.03;;
3004;SDS011;1512;51.486;6.610;2023-02-11T04:31:12;16.90;;;11.00;;
3004;SDS011;1512;51.486;6.610;2023-02-11T04:35:21;15.50;;;9.30;;
3004;SDS011;1512;51.486;6.610;2023-02-11T04:39:30;14.83;;;9.07;;
3004;SDS011;1512;51.486;6.610;2023-02-11T04:43:39;19.47;;;10.20;;
3004;SDS011;1512;51.486;6.610;2023-02-11T04:47:47;12.63;;;9.60;;
3004;SDS011;1512;51.486;6.610;2023-02-11T04:51:56;16.93;;;10.47;;
3004;SDS011;1512;51.486;6.610;2023-02-11T04:56:04;12.70;;;9.00;;
3004;SDS011;1512;51.486;6.610;2023-02-11T05:00:13;14.20;;;11.27;;
3004;SDS011;1512;51.486;6.610;2023-02-11T05:04:22;15.90;;;10.70;;
3004;SDS011;1512;51.486;6.610;2023-02-11T05:08:31;16.10;;;10.30;;
3004;SDS011;1512;51.486;6.610;2023-02-11T05:12:40;18.30;;;10.33;;
3004;SDS011;1512;51.486;6.610;2023-02-11T05:16:48;13.10;;;9.17;;
3004;SDS011;1512;51.486;6.610;2023-02-11T05:20:57;16.80;;;9.03;;
3004;SDS011;1512;51.486;6.610;2023-02-11T05:25:05;12.60;;;9.70;;
3004;SDS011;1512;51.486;6.610;2023-02-11T05:29:14;18.50;;;10.60;;
3004;SDS011;1512;51.486;6.610;2023-02-11T05:33:23;19.27;;;12.30;;
3004;SDS011;1512;51.486;6.610;2023-02-11T05:37:31;12.40;;;9.53;;
3004;SDS011;1512;51.486;6.610;2023-02-11T05:41:40;24.10;;;10.80;;
3004;SDS011;1512;51.486;6.610;2023-02-11T05:45:48;15.60;;;11.50;;
3004;SDS011;1512;51.486;6.610;2023-02-11T05:49:58;24.47;;;11.13;;
3004;SDS011;1512;51.486;6.610;2023-02-11T05:54:06;19.37;;;12.50;;
3004;SDS011;1512;51.486;6.610;2023-02-11T05:58:15;16.97;;;10.03;;
3004;SDS011;1512;51.486;6.610;2023-02-11T06:02:23;19.30;;;11.83;;
3004;SDS011;1512;51.486;6.610;2023-02-11T06:06:32;23.80;;;13.20;;
3004;SDS011;1512;51.486;6.610;2023-02-11T06:10:43;18.60;;;11.67;;
3004;SDS011;1512;51.486;6.610;2023-02-11T06:14:52;26.77;;;13.37;;
3004;SDS011;1512;51.486;6.610;2023-02-11T06:19:00;26.43;;;12.90;;
3004;SDS011;1512;51.486;6.610;2023-02-11T06:23:09;18.80;;;13.20;;
3004;SDS011;1512;51.486;6.610;2023-02-11T06:27:17;37.63;;;12.67;;
3004;SDS011;1512;51.486;6.610;2023-02-11T06:31:26;18.67;;;11.70;;
3004;SDS011;1512;51.486;6.610;2023-02-11T06:35:37;26.13;;;12.37;;
3004;SDS011;1512;51.486;6.610;2023-02-11T06:39:45;21.90;;;10.87;;
3004;SDS011;1512;51.486;6.610;2023-02-11T06:43:54;18.33;;;11.70;;
3004;SDS011;1512;51.486;6.610;2023-02-11T06:48:02;22.58;;;11.75;;
3004;SDS011;1512;51.486;6.610;2023-02-11T06:52:11;23.03;;;10.90;;
3004;SDS011;1512;51.486;6.610;2023-02-11T06:56:20;17.60;;;11.00;;
3004;SDS011;1512;51.486;6.610;2023-02-11T07:00:32;24.40;;;12.50;;
3004;SDS011;1512;51.486;6.610;2023-02-11T07:04:40;19.07;;;11.37;;
3004;SDS011;1512;51.486;6.610;2023-02-11T07:08:49;19.83;;;12.20;;
3004;SDS011;1512;51.486;6.610;2023-02-11T07:12:58;24.97;;;12.43;;
3004;SDS011;1512;51.486;6.610;2023-02-11T07:17:06;25.30;;;12.60;;
3004;SDS011;1512;51.486;6.610;2023-02-11T07:21:16;19.30;;;10.27;;
3004;SDS011;1512;51.486;6.610;2023-02-11T07:25:27;31.90;;;12.60;;
3004;SDS011;1512;51.486;6.610;2023-02-11T07:29:35;22.43;;;12.77;;
3004;SDS011;1512;51.486;6.610;2023-02-11T07:33:44;21.13;;;11.77;;
3004;SDS011;1512;51.486;6.610;2023-02-11T07:37:52;20.47;;;12.77;;
3004;SDS011;1512;51.486;6.610;2023-02-11T07:42:01;26.43;;;14.27;;
3004;SDS011;1512;51.486;6.610;2023-02-11T07:46:12;43.80;;;13.40;;
3004;SDS011;1512;51.486;6.610;2023-02-11T07:50:22;22.33;;;12.70;;
3004;SDS011;1512;51.486;6.610;2023-02-11T07:54:30;25.47;;;12.07;;
3004;SDS011;1512;51.486;6.610;2023-02-11T07:58:39;22.50;;;9.57;;
3004;SDS011;1512;51.486;6.610;2023-02-11T08:02:48;27.13;;;10.83;;
3004;SDS011;1512;51.486;6.610;2023-02-11T08:06:57;26.07;;;11.97;;
3004;SDS011;1512;51.486;6.610;2023-02-11T08:11:06;21.60;;;11.83;;
3004;SDS011;1512;51.486;6.610;2023-02-11T08:15:16;26.67;;;12.77;;
3004;SDS011;1512;51.486;6.610;2023-02-11T08:19:24;24.47;;;13.30;;
3004;SDS011;1512;51.486;6.610;2023-02-11T08:23:39;26.73;;;11.40;;
3004;SDS011;1512;51.486;6.610;2023-02-11T08:27:44;15.90;;;10.83;;
3004;SDS011;1512;51.486;6.610;2023-02-11T08:31:52;26.13;;;12.30;;
3004;SDS011;1512;51.486;6.610;2023-02-11T08:36:06;25.27;;;13.17;;
3004;SDS011;1512;51.486;6.610;2023-02-11T08:40:19;29.47;;;12.37;;
3004;SDS011;1512;51.486;6.610;2023-02-11T08:44:27;26.10;;;14.40;;
3004;SDS011;1512;51.486;6.610;2023-02-11T08:48:36;22.70;;;11.43;;
3004;SDS011;1512;51.486;6.610;2023-02-11T08:52:44;26.77;;;13.67;;
3004;SDS011;1512;51.486;6.610;2023-02-11T08:56:53;27.00;;;15.97;;
3004;SDS011;1512;51.486;6.610;2023-02-11T09:01:07;32.57;;;15.80;;
3004;SDS011;1512;51.486;6.610;2023-02-11T09:05:19;31.30;;;16.17;;
3004;SDS011;1512;51.486;6.610;2023-02-11T09:09:28;33.37;;;15.07;;
3004;SDS011;1512;51.486;6.610;2023-02-11T09:13:38;21.80;;;13.97;;
3004;SDS011;1512;51.486;6.610;2023-02-11T09:17:48;28.80;;;14.90;;
3004;SDS011;1512;51.486;6.610;2023-02-11T09:21:57;31.70;;;14.80;;
3004;SDS011;1512;51.486;6.610;2023-02-11T09:26:06;31.07;;;14.10;;
3004;SDS011;1512;51.486;6.610;2023-02-11T09:30:16;33.87;;;15.37;;
3004;SDS011;1512;51.486;6.610;2023-02-11T09:34:24;31.87;;;15.23;;
3004;SDS011;1512;51.486;6.610;2023-02-11T09:38:33;28.90;;;17.70;;
3004;SDS011;1512;51.486;6.610;2023-02-11T09:43:02;35.03;;;15.93;;
3004;SDS011;1512;51.486;6.610;2023-02-11T09:47:27;29.23;;;16.00;;
3004;SDS011;1512;51.486;6.610;2023-02-11T09:51:55;37.48;;;16.73;;
3004;SDS011;1512;51.486;6.610;2023-02-11T09:56:09;38.90;;;17.90;;
3004;SDS011;1512;51.486;6.610;2023-02-11T10:00:17;29.37;;;16.00;;
3004;SDS011;1512;51.486;6.610;2023-02-11T10:13:29;33.77;;;16.37;;
3004;SDS011;1512;51.486;6.610;2023-02-11T10:22:21;32.60;;;17.03;;
3004;SDS011;1512;51.486;6.610;2023-02-11T10:26:31;29.67;;;15.57;;
3004;SDS011;1512;51.486;6.610;2023-02-11T10:31:25;37.33;;;17.90;;
3004;SDS011;1512;51.486;6.610;2023-02-11T10:35:13;33.50;;;17.10;;
3004;SDS011;1512;51.486;6.610;2023-02-11T10:39:27;33.90;;;18.97;;
3004;SDS011;1512;51.486;6.610;2023-02-11T10:43:36;40.30;;;18.70;;
3004;SDS011;1512;51.486;6.610;2023-02-11T10:47:45;35.03;;;17.13;;
3004;SDS011;1512;51.486;6.610;2023-02-11T10:52:01;32.90;;;18.13;;
3004;SDS011;1512;51.486;6.610;2023-02-11T10:56:05;37.53;;;15.90;;
3004;SDS011;1512;51.486;6.610;2023-02-11T11:08:46;31.20;;;17.67;;
3004;SDS011;1512;51.486;6.610;2023-02-11T11:12:56;32.57;;;16.40;;
3004;SDS011;1512;51.486;6.610;2023-02-11T11:17:10;33.87;;;17.70;;
3004;SDS011;1512;51.486;6.610;2023-02-11T11:21:27;44.60;;;21.93;;
3004;SDS011;1512;51.486;6.610;2023-02-11T11:25:38;40.40;;;20.57;;
3004;SDS011;1512;51.486;6.610;2023-02-11T11:29:49;34.70;;;19.13;;
3004;SDS011;1512;51.486;6.610;2023-02-11T11:34:01;41.57;;;19.77;;
3004;SDS011;1512;51.486;6.610;2023-02-11T11:38:11;29.93;;;19.63;;
3004;SDS011;1512;51.486;6.610;2023-02-11T11:42:28;47.17;;;24.50;;
3004;SDS011;1512;51.486;6.610;2023-02-11T11:46:41;37.80;;;19.50;;
3004;SDS011;1512;51.486;6.610;2023-02-11T11:51:00;35.20;;;19.63;;
3004;SDS011;1512;51.486;6.610;2023-02-11T11:55:16;34.97;;;15.27;;
3004;SDS011;1512;51.486;6.610;2023-02-11T11:59:30;39.00;;;18.73;;
3004;SDS011;1512;51.486;6.610;2023-02-11T12:08:13;38.23;;;19.10;;
3004;SDS011;1512;51.486;6.610;2023-02-11T12:17:05;37.10;;;19.97;;
3004;SDS011;1512;51.486;6.610;2023-02-11T12:43:35;42.20;;;19.43;;
3004;SDS011;1512;51.486;6.610;2023-02-11T12:56:44;49.30;;;21.20;;
3004;SDS011;1512;51.486;6.610;2023-02-11T13:00:54;37.57;;;20.80;;
3004;SDS011;1512;51.486;6.610;2023-02-11T13:09:37;33.50;;;22.17;;
3004;SDS011;1512;51.486;6.610;2023-02-11T13:13:54;40.63;;;19.37;;
3004;SDS011;1512;51.486;6.610;2023-02-11T13:22:57;32.37;;;18.23;;
3004;SDS011;1512;51.486;6.610;2023-02-11T13:27:12;36.20;;;19.80;;
3004;SDS011;1512;51.486;6.610;2023-02-11T13:31:37;35.87;;;18.20;;
3004;SDS011;1512;51.486;6.610;2023-02-11T13:44:32;36.50;;;18.43;;
3004;SDS011;1512;51.486;6.610;2023-02-11T13:48:44;41.93;;;20.63;;
3004;SDS011;1512;51.486;6.610;2023-02-11T13:52:58;38.20;;;20.07;;
3004;SDS011;1512;51.486;6.610;2023-02-11T14:14:59;32.63;;;19.77;;
3004;SDS011;1512;51.486;6.610;2023-02-11T14:19:14;40.33;;;19.87;;
3004;SDS011;1512;51.486;6.610;2023-02-11T14:23:25;36.13;;;20.20;;
3004;SDS011;1512;51.486;6.610;2023-02-11T14:27:41;33.87;;;19.10;;
3004;SDS011;1512;51.486;6.610;2023-02-11T14:31:59;33.83;;;19.60;;
3004;SDS011;1512;51.486;6.610;2023-02-11T14:41:04;30.30;;;17.73;;
3004;SDS011;1512;51.486;6.610;2023-02-11T14:45:18;29.00;;;15.67;;
3004;SDS011;1512;51.486;6.610;2023-02-11T14:49:28;35.70;;;17.00;;
3004;SDS011;1512;51.486;6.610;2023-02-11T14:53:42;31.20;;;17.07;;
3004;SDS011;1512;51.486;6.610;2023-02-11T14:58:12;33.73;;;18.57;;
3004;SDS011;1512;51.486;6.610;2023-02-11T15:02:24;32.10;;;18.37;;
3004;SDS011;1512;51.486;6.610;2023-02-11T15:06:38;35.13;;;18.33;;
3004;SDS011;1512;51.486;6.610;2023-02-11T15:10:48;29.30;;;16.37;;
3004;SDS011;1512;51.486;6.610;2023-02-11T15:14:58;40.40;;;18.73;;
3004;SDS011;1512;51.486;6.610;2023-02-11T15:19:07;29.33;;;16.50;;
3004;SDS011;1512;51.486;6.610;2023-02-11T15:23:24;28.83;;;17.50;;
3004;SDS011;1512;51.486;6.610;2023-02-11T15:27:43;39.63;;;18.27;;
3004;SDS011;1512;51.486;6.610;2023-02-11T15:32:06;37.03;;;17.60;;
3004;SDS011;1512;51.486;6.610;2023-02-11T15:36:13;29.53;;;15.83;;
3004;SDS011;1512;51.486;6.610;2023-02-11T15:40:24;34.03;;;16.50;;
3004;SDS011;1512;51.486;6.610;2023-02-11T15:44:35;28.67;;;15.93;;
3004;SDS011;1512;51.486;6.610;2023-02-11T15:48:49;33.40;;;16.57;;
3004;SDS011;1512;51.486;6.610;2023-02-11T15:52:56;26.33;;;16.17;;
3004;SDS011;1512;51.486;6.610;2023-02-11T15:57:08;26.07;;;13.63;;
3004;SDS011;1512;51.486;6.610;2023-02-11T16:01:17;30.90;;;16.50;;
3004;SDS011;1512;51.486;6.610;2023-02-11T16:05:35;43.40;;;20.33;;
3004;SDS011;1512;51.486;6.610;2023-02-11T16:09:46;33.73;;;18.40;;
3004;SDS011;1512;51.486;6.610;2023-02-11T16:13:58;33.93;;;19.87;;
3004;SDS011;1512;51.486;6.610;2023-02-11T16:18:13;42.00;;;19.95;;
3004;SDS011;1512;51.486;6.610;2023-02-11T16:22:29;37.83;;;18.60;;
3004;SDS011;1512;51.486;6.610;2023-02-11T16:26:40;42.53;;;20.40;;
3004;SDS011;1512;51.486;6.610;2023-02-11T16:30:51;33.53;;;19.80;;
3004;SDS011;1512;51.486;6.610;2023-02-11T16:35:01;35.70;;;20.43;;
3004;SDS011;1512;51.486;6.610;2023-02-11T16:39:11;39.07;;;20.10;;
3004;SDS011;1512;51.486;6.610;2023-02-11T16:43:20;35.87;;;19.10;;
3004;SDS011;1512;51.486;6.610;2023-02-11T16:47:29;33.17;;;19.20;;
3004;SDS011;1512;51.486;6.610;2023-02-11T16:51:38;35.33;;;21.23;;
3004;SDS011;1512;51.486;6.610;2023-02-11T16:55:48;37.00;;;21.07;;
3004;SDS011;1512;51.486;6.610;2023-02-11T16:59:57;34.47;;;19.57;;
3004;SDS011;1512;51.486;6.610;2023-02-11T17:04:06;37.97;;;18.83;;
3004;SDS011;1512;51.486;6.610;2023-02-11T17:08:20;33.17;;;18.80;;
3004;SDS011;1512;51.486;6.610;2023-02-11T17:12:30;39.50;;;20.23;;
3004;SDS011;1512;51.486;6.610;2023-02-11T17:16:38;39.50;;;20.80;;
3004;SDS011;1512;51.486;6.610;2023-02-11T17:20:47;50.97;;;21.63;;
3004;SDS011;1512;51.486;6.610;2023-02-11T17:24:56;33.63;;;21.40;;
3004;SDS011;1512;51.486;6.610;2023-02-11T17:29:05;38.97;;;18.90;;
3004;SDS011;1512;51.486;6.610;2023-02-11T17:33:16;38.37;;;18.60;;
3004;SDS011;1512;51.486;6.610;2023-02-11T17:37:25;41.17;;;21.73;;
3004;SDS011;1512;51.486;6.610;2023-02-11T17:41:38;45.53;;;23.90;;
3004;SDS011;1512;51.486;6.610;2023-02-11T17:45:46;38.23;;;20.90;;
3004;SDS011;1512;51.486;6.610;2023-02-11T17:49:55;47.07;;;22.73;;
3004;SDS011;1512;51.486;6.610;2023-02-11T17:54:05;36.57;;;24.20;;
3004;SDS011;1512;51.486;6.610;2023-02-11T17:58:15;40.63;;;20.33;;
3004;SDS011;1512;51.486;6.610;2023-02-11T18:02:24;39.83;;;22.30;;
3004;SDS011;1512;51.486;6.610;2023-02-11T18:06:33;47.20;;;22.20;;
3004;SDS011;1512;51.486;6.610;2023-02-11T18:10:41;39.20;;;22.10;;
3004;SDS011;1512;51.486;6.610;2023-02-11T18:14:53;41.97;;;22.87;;
3004;SDS011;1512;51.486;6.610;2023-02-11T18:19:04;43.83;;;23.27;;
3004;SDS011;1512;51.486;6.610;2023-02-11T18:23:13;40.97;;;22.87;;
3004;SDS011;1512;51.486;6.610;2023-02-11T18:27:21;42.57;;;19.83;;
3004;SDS011;1512;51.486;6.610;2023-02-11T18:31:30;36.07;;;22.27;;
3004;SDS011;1512;51.486;6.610;2023-02-11T18:35:40;44.20;;;23.37;;
3004;SDS011;1512;51.486;6.610;2023-02-11T18:39:51;41.97;;;22.30;;
3004;SDS011;1512;51.486;6.610;2023-02-11T18:44:00;50.10;;;25.33;;
3004;SDS011;1512;51.486;6.610;2023-02-11T18:48:10;48.40;;;23.13;;
3004;SDS011;1512;51.486;6.610;2023-02-11T18:52:18;51.27;;;27.17;;
3004;SDS011;1512;51.486;6.610;2023-02-11T18:56:27;46.37;;;24.10;;
3004;SDS011;1512;51.486;6.610;2023-02-11T19:00:36;54.37;;;23.60;;
3004;SDS011;1512;51.486;6.610;2023-02-11T19:04:46;42.27;;;23.53;;
3004;SDS011;1512;51.486;6.610;2023-02-11T19:08:57;46.90;;;22.63;;
3004;SDS011;1512;51.486;6.610;2023-02-11T19:13:07;45.47;;;21.83;;
3004;SDS011;1512;51.486;6.610;2023-02-11T19:17:16;46.70;;;23.13;;
3004;SDS011;1512;51.486;6.610;2023-02-11T19:21:24;45.07;;;24.57;;
3004;SDS011;1512;51.486;6.610;2023-02-11T19:25:33;61.47;;;26.93;;
3004;SDS011;1512;51.486;6.610;2023-02-11T19:29:42;38.97;;;23.07;;
3004;SDS011;1512;51.486;6.610;2023-02-11T19:33:50;52.90;;;22.90;;
3004;SDS011;1512;51.486;6.610;2023-02-11T19:37:59;51.00;;;22.80;;
3004;SDS011;1512;51.486;6.610;2023-02-11T19:42:08;48.90;;;25.00;;
3004;SDS011;1512;51.486;6.610;2023-02-11T19:46:20;47.20;;;26.00;;
3004;SDS011;1512;51.486;6.610;2023-02-11T19:50:30;49.63;;;24.33;;
3004;SDS011;1512;51.486;6.610;2023-02-11T19:54:39;36.03;;;20.77;;
3004;SDS011;1512;51.486;6.610;2023-02-11T19:58:47;40.93;;;22.83;;
3004;SDS011;1512;51.486;6.610;2023-02-11T20:02:56;50.60;;;24.77;;
3004;SDS011;1512;51.486;6.610;2023-02-11T20:07:06;43.27;;;23.00;;
3004;SDS011;1512;51.486;6.610;2023-02-11T20:11:15;48.20;;;24.83;;
3004;SDS011;1512;51.486;6.610;2023-02-11T20:15:24;42.20;;;23.57;;
3004;SDS011;1512;51.486;6.610;2023-02-11T20:19:32;46.37;;;24.40;;
3004;SDS011;1512;51.486;6.610;2023-02-11T20:23:41;46.40;;;25.67;;
3004;SDS011;1512;51.486;6.610;2023-02-11T20:27:52;53.87;;;26.50;;
3004;SDS011;1512;51.486;6.610;2023-02-11T20:32:01;53.60;;;22.17;;
3004;SDS011;1512;51.486;6.610;2023-02-11T20:36:11;48.30;;;25.07;;
3004;SDS011;1512;51.486;6.610;2023-02-11T20:40:21;44.43;;;24.00;;
3004;SDS011;1512;51.486;6.610;2023-02-11T20:44:30;59.30;;;26.07;;
3004;SDS011;1512;51.486;6.610;2023-02-11T20:48:38;39.30;;;24.80;;
3004;SDS011;1512;51.486;6.610;2023-02-11T20:52:47;42.40;;;23.77;;
3004;SDS011;1512;51.486;6.610;2023-02-11T20:56:55;40.87;;;21.73;;
3004;SDS011;1512;51.486;6.610;2023-02-11T21:01:06;41.30;;;23.67;;
3004;SDS011;1512;51.486;6.610;2023-02-11T21:05:21;46.53;;;23.37;;
3004;SDS011;1512;51.486;6.610;2023-02-11T21:09:31;61.43;;;23.77;;
3004;SDS011;1512;51.486;6.610;2023-02-11T21:13:40;45.50;;;24.10;;
3004;SDS011;1512;51.486;6.610;2023-02-11T21:17:49;39.60;;;22.57;;
3004;SDS011;1512;51.486;6.610;2023-02-11T21:21:58;49.47;;;23.43;;
3004;SDS011;1512;51.486;6.610;2023-02-11T21:26:07;56.10;;;25.47;;
3004;SDS011;1512;51.486;6.610;2023-02-11T21:30:16;52.13;;;24.70;;
3004;SDS011;1512;51.486;6.610;2023-02-11T21:34:24;47.10;;;24.50;;
3004;SDS011;1512;51.486;6.610;2023-02-11T21:38:34;51.10;;;23.10;;
3004;SDS011;1512;51.486;6.610;2023-02-11T21:42:43;43.40;;;22.60;;
3004;SDS011;1512;51.486;6.610;2023-02-11T21:46:51;40.30;;;22.80;;
3004;SDS011;1512;51.486;6.610;2023-02-11T21:51:02;61.05;;;23.02;;
3004;SDS011;1512;51.486;6.610;2023-02-11T21:55:13;41.50;;;24.80;;
3004;SDS011;1512;51.486;6.610;2023-02-11T21:59:22;46.30;;;24.33;;
3004;SDS011;1512;51.486;6.610;2023-02-11T22:03:31;47.10;;;24.90;;
3004;SDS011;1512;51.486;6.610;2023-02-11T22:07:39;41.97;;;21.20;;
3004;SDS011;1512;51.486;6.610;2023-02-11T22:11:48;52.27;;;25.00;;
3004;SDS011;1512;51.486;6.610;2023-02-11T22:15:57;47.33;;;24.50;;
3004;SDS011;1512;51.486;6.610;2023-02-11T22:20:06;45.27;;;21.90;;
3004;SDS011;1512;51.486;6.610;2023-02-11T22:24:16;44.67;;;24.07;;
3004;SDS011;1512;51.486;6.610;2023-02-11T22:28:24;47.77;;;23.27;;
3004;SDS011;1512;51.486;6.610;2023-02-11T22:32:33;45.63;;;22.60;;
3004;SDS011;1512;51.486;6.610;2023-02-11T22:36:41;36.77;;;20.70;;
3004;SDS011;1512;51.486;6.610;2023-02-11T22:40:51;48.67;;;21.20;;
3004;SDS011;1512;51.486;6.610;2023-02-11T22:44:59;37.70;;;20.87;;
3004;SDS011;1512;51.486;6.610;2023-02-11T22:49:09;40.37;;;21.87;;
3004;SDS011;1512;51.486;6.610;2023-02-11T22:53:20;45.27;;;24.07;;
3004;SDS011;1512;51.486;6.610;2023-02-11T22:57:30;43.87;;;23.53;;
3004;SDS011;1512;51.486;6.610;2023-02-11T23:01:39;41.00;;;22.90;;
3004;SDS011;1512;51.486;6.610;2023-02-11T23:05:48;40.93;;;21.47;;
3004;SDS011;1512;51.486;6.610;2023-02-11T23:09:56;37.83;;;20.90;;
3004;SDS011;1512;51.486;6.610;2023-02-11T23:14:05;49.30;;;25.50;;
3004;SDS011;1512;51.486;6.610;2023-02-11T23:18:15;45.13;;;25.47;;
3004;SDS011;1512;51.486;6.610;2023-02-11T23:22:24;40.93;;;23.60;;
3004;SDS011;1512;51.486;6.610;2023-02-11T23:26:33;42.83;;;23.00;;
3004;SDS011;1512;51.486;6.610;2023-02-11T23:30:41;36.57;;;21.63;;
3004;SDS011;1512;51.486;6.610;2023-02-11T23:34:50;43.37;;;24.27;;
3004;SDS011;1512;51.486;6.610;2023-02-11T23:38:58;49.20;;;22.77;;
3004;SDS011;1512;51.486;6.610;2023-02-11T23:43:07;37.77;;;22.13;;
3004;SDS011;1512;51.486;6.610;2023-02-11T23:47:16;43.33;;;22.33;;
3004;SDS011;1512;51.486;6.610;2023-02-11T23:51:24;50.03;;;22.27;;
3004;SDS011;1512;51.486;6.610;2023-02-11T23:55:33;38.87;;;19.63;;
3004;SDS011;1512;51.486;6.610;2023-02-11T23:59:43;48.87;;;25.30;;
